Time;durP1;ratioP1;P1;durP2;ratioP2;P2;SDS_P1;SDS_P2;PMS_P1;PMS_P2;Temp;Humidity;BMP_temperature;BMP_pressure;BME280_temperature;BME280_humidity;BME280_pressure;Samples;Min_cycle;Max_cycle;Signal;HPM_P1;HPM_P2
2022/06/29 00:01:55;;;;;;;9.98;6.47;;;24.00;99.90;;;;;;4909429;29;20028;-82
2022/06/29 00:04:21;;;;;;;10.68;7.03;;;24.00;99.90;;;;;;4905726;29;20088;-82
2022/06/29 00:06:48;;;;;;;10.90;7.72;;;24.00;99.90;;;;;;4905712;29;20036;-83
2022/06/29 00:09:14;;;;;;;8.68;6.93;;;24.00;99.90;;;;;;4904949;29;20060;-82
2022/06/29 00:11:40;;;;;;;8.77;6.72;;;23.90;99.90;;;;;;4920114;29;20048;-82
2022/06/29 00:14:05;;;;;;;10.55;7.70;;;23.90;99.90;;;;;;4907749;29;20089;-81
2022/06/29 00:16:31;;;;;;;8.52;6.68;;;23.90;99.90;;;;;;4933705;29;20040;-82
2022/06/29 00:18:57;;;;;;;7.53;6.72;;;23.90;99.90;;;;;;4919666;29;20116;-81
2022/06/29 00:21:23;;;;;;;9.10;6.78;;;23.90;99.90;;;;;;4956171;23;20067;-78
2022/06/29 00:23:49;;;;;;;7.88;6.63;;;23.90;99.90;;;;;;4953190;29;20082;-79
2022/06/29 00:26:15;;;;;;;9.55;6.95;;;23.90;99.90;;;;;;4952588;29;20032;-79
2022/06/29 00:28:40;;;;;;;9.95;6.32;;;23.80;99.90;;;;;;4953013;29;20038;-79
2022/06/29 00:31:06;;;;;;;8.75;6.95;;;23.90;99.90;;;;;;4943742;29;20373;-79
2022/06/29 00:33:32;;;;;;;11.13;6.90;;;23.80;99.90;;;;;;4949608;29;20042;-78
2022/06/29 00:35:58;;;;;;;11.82;7.05;;;23.70;99.90;;;;;;4956173;29;20024;-78
2022/06/29 00:38:23;;;;;;;9.05;7.22;;;23.70;99.90;;;;;;4957156;29;20024;-78
2022/06/29 00:40:50;;;;;;;11.23;6.95;;;23.70;99.90;;;;;;4956111;29;20027;-77
2022/06/29 00:43:16;;;;;;;10.60;7.47;;;23.70;99.90;;;;;;4951638;29;20028;-80
2022/06/29 00:45:41;;;;;;;8.63;6.97;;;23.70;99.90;;;;;;4942925;29;20060;-80
2022/06/29 00:48:09;;;;;;;9.77;7.78;;;23.70;99.90;;;;;;4941739;29;20026;-80
2022/06/29 00:50:38;;;;;;;9.20;7.00;;;23.70;99.90;;;;;;4942226;29;20032;-80
2022/06/29 00:53:05;;;;;;;14.35;7.22;;;23.70;99.90;;;;;;4941363;29;20031;-81
2022/06/29 00:55:37;;;;;;;11.75;7.70;;;23.70;99.90;;;;;;4942844;29;20024;-80
2022/06/29 00:58:05;;;;;;;9.32;7.43;;;23.70;99.90;;;;;;4951236;29;20028;-79
2022/06/29 01:00:35;;;;;;;8.23;7.13;;;23.60;99.90;;;;;;4956902;29;20100;-79
2022/06/29 01:03:01;;;;;;;9.45;7.40;;;23.60;99.90;;;;;;4954151;29;20028;-78
2022/06/29 01:05:31;;;;;;;11.07;7.20;;;23.50;99.90;;;;;;4953959;29;20012;-78
2022/06/29 01:07:58;;;;;;;8.85;7.45;;;23.50;99.90;;;;;;4945788;29;20427;-80
2022/06/29 01:10:24;;;;;;;10.98;7.57;;;23.40;99.90;;;;;;4942173;29;20042;-78
2022/06/29 01:12:53;;;;;;;9.85;7.53;;;23.30;99.90;;;;;;4941227;29;20035;-79
2022/06/29 01:15:20;;;;;;;10.45;7.35;;;23.40;99.90;;;;;;4942819;29;20381;-80
2022/06/29 01:17:46;;;;;;;10.60;7.35;;;23.40;99.90;;;;;;4943023;29;20059;-80
2022/06/29 01:20:12;;;;;;;9.05;7.65;;;23.40;99.90;;;;;;4942489;29;20031;-80
2022/06/29 01:22:39;;;;;;;12.30;7.80;;;23.40;99.90;;;;;;4949159;29;20424;-78
2022/06/29 01:25:05;;;;;;;9.85;7.63;;;23.40;99.90;;;;;;4952002;29;20042;-79
2022/06/29 01:27:31;;;;;;;11.25;8.18;;;23.40;99.90;;;;;;4946363;29;20036;-79
2022/06/29 01:29:56;;;;;;;8.80;7.40;;;23.40;99.90;;;;;;4941393;29;20514;-80
2022/06/29 01:32:22;;;;;;;10.10;8.13;;;23.30;99.90;;;;;;4946954;29;20492;-78
2022/06/29 01:34:49;;;;;;;8.45;6.97;;;23.20;99.90;;;;;;4930758;29;20071;-77
2022/06/29 01:37:14;;;;;;;13.63;8.35;;;23.10;99.90;;;;;;4944833;29;20114;-79
2022/06/29 01:39:41;;;;;;;8.80;7.60;;;23.00;99.90;;;;;;4940679;29;20071;-79
2022/06/29 01:42:08;;;;;;;11.32;8.13;;;23.00;99.90;;;;;;4938770;29;20074;-78
2022/06/29 01:44:35;;;;;;;11.52;8.32;;;22.90;99.90;;;;;;4941890;29;20031;-79
2022/06/29 01:47:01;;;;;;;11.57;8.23;;;22.80;99.90;;;;;;4942317;29;20046;-82
2022/06/29 01:49:28;;;;;;;9.20;8.05;;;22.70;99.90;;;;;;4942755;29;20032;-81
2022/06/29 01:51:55;;;;;;;10.25;8.35;;;22.70;99.90;;;;;;4940766;29;20031;-80
2022/06/29 01:54:21;;;;;;;12.60;8.50;;;22.60;99.90;;;;;;4940865;29;20054;-81
2022/06/29 01:56:47;;;;;;;14.00;8.60;;;22.60;99.90;;;;;;4940533;29;20041;-80
2022/06/29 01:59:13;;;;;;;12.55;8.60;;;22.60;99.90;;;;;;4940613;29;20024;-80
2022/06/29 02:01:39;;;;;;;12.90;8.32;;;22.50;99.90;;;;;;4940362;29;20095;-79
2022/06/29 02:04:06;;;;;;;10.93;8.63;;;22.50;99.90;;;;;;4940094;29;20070;-79
2022/06/29 02:06:32;;;;;;;10.90;8.65;;;22.50;99.90;;;;;;4943481;29;20127;-80
2022/06/29 02:08:58;;;;;;;9.73;8.27;;;22.40;99.90;;;;;;4940963;29;20036;-81
2022/06/29 02:11:24;;;;;;;12.68;9.05;;;22.40;99.90;;;;;;4943661;29;20035;-80
2022/06/29 02:13:51;;;;;;;10.30;8.98;;;22.40;99.90;;;;;;4943776;29;20046;-80
2022/06/29 02:16:16;;;;;;;12.52;9.05;;;22.40;99.90;;;;;;4941065;29;20050;-80
2022/06/29 02:18:43;;;;;;;9.50;8.50;;;22.40;99.90;;;;;;4942301;29;20031;-79
2022/06/29 02:21:09;;;;;;;18.35;8.85;;;22.30;99.90;;;;;;4952829;29;20067;-80
2022/06/29 02:23:35;;;;;;;11.07;8.63;;;22.30;99.90;;;;;;4951384;29;20036;-78
2022/06/29 02:26:01;;;;;;;13.55;8.23;;;22.30;99.90;;;;;;4951805;29;20114;-80
2022/06/29 02:28:27;;;;;;;8.60;7.70;;;22.30;99.90;;;;;;4951083;29;20032;-78
2022/06/29 02:36:22;;;;;;;8.97;7.73;;;22.50;99.90;;;;;;4949785;29;20050;-77
2022/06/29 02:38:48;;;;;;;11.77;8.25;;;22.50;99.90;;;;;;4946099;29;20083;-80
2022/06/29 02:41:13;;;;;;;15.15;9.15;;;22.50;99.90;;;;;;4942820;29;20098;-80
2022/06/29 02:43:39;;;;;;;13.10;8.77;;;22.60;99.90;;;;;;4942362;29;20028;-79
2022/06/29 02:46:05;;;;;;;16.17;8.27;;;22.70;99.90;;;;;;4950360;29;20595;-81
2022/06/29 02:48:32;;;;;;;10.05;8.32;;;22.90;99.90;;;;;;4949349;29;20031;-78
2022/06/29 02:50:59;;;;;;;12.23;8.80;;;23.00;99.90;;;;;;4947193;29;20036;-78
2022/06/29 02:53:26;;;;;;;11.70;8.45;;;23.00;99.90;;;;;;4944915;29;20031;-80
2022/06/29 02:55:52;;;;;;;9.02;7.30;;;23.00;99.90;;;;;;4942937;29;20023;-79
2022/06/29 02:58:17;;;;;;;12.32;8.43;;;23.00;99.90;;;;;;4942189;29;20031;-80
2022/06/29 03:00:43;;;;;;;9.30;8.07;;;23.00;99.90;;;;;;4940879;29;20668;-79
2022/06/29 03:03:09;;;;;;;12.80;7.72;;;23.00;99.90;;;;;;4938870;29;20027;-80
2022/06/29 03:05:35;;;;;;;10.77;7.93;;;23.00;99.90;;;;;;4939802;29;20060;-80
2022/06/29 03:08:02;;;;;;;9.30;7.82;;;23.00;99.90;;;;;;4938629;29;20159;-78
2022/06/29 03:10:28;;;;;;;11.15;8.10;;;23.00;99.90;;;;;;4939741;29;20027;-79
2022/06/29 03:12:54;;;;;;;11.40;8.35;;;22.90;99.90;;;;;;4938741;29;20024;-79
2022/06/29 03:15:20;;;;;;;13.52;9.07;;;22.90;99.90;;;;;;4941353;29;20035;-80
2022/06/29 03:17:45;;;;;;;12.07;8.00;;;22.90;99.90;;;;;;4944590;29;20082;-81
2022/06/29 03:20:13;;;;;;;14.10;7.88;;;22.90;99.90;;;;;;4949193;29;20028;-79
2022/06/29 03:22:39;;;;;;;15.88;8.90;;;23.00;99.90;;;;;;4956135;29;20035;-80
2022/06/29 03:25:05;;;;;;;11.43;8.57;;;23.00;99.90;;;;;;4956468;29;20015;-79
2022/06/29 03:27:32;;;;;;;12.00;8.70;;;23.00;99.90;;;;;;4954962;29;20031;-78
2022/06/29 03:29:58;;;;;;;11.13;9.20;;;23.00;99.90;;;;;;4952058;29;20031;-78
2022/06/29 03:32:24;;;;;;;10.05;7.97;;;23.00;99.90;;;;;;4947824;29;20028;-79
2022/06/29 03:34:49;;;;;;;13.98;8.88;;;23.00;99.90;;;;;;4944555;29;20046;-80
2022/06/29 03:37:15;;;;;;;16.83;8.45;;;23.00;99.90;;;;;;4951834;29;20071;-79
2022/06/29 03:39:42;;;;;;;14.73;8.90;;;23.00;99.90;;;;;;4947799;29;20023;-79
2022/06/29 03:42:08;;;;;;;10.43;8.18;;;22.90;99.90;;;;;;4955566;29;20023;-79
2022/06/29 03:44:33;;;;;;;13.13;8.15;;;22.80;99.90;;;;;;4946542;29;20032;-81
2022/06/29 03:46:59;;;;;;;9.80;8.07;;;22.80;99.90;;;;;;4941897;29;20043;-80
2022/06/29 03:49:26;;;;;;;9.07;8.10;;;22.80;99.90;;;;;;4940877;29;20396;-79
2022/06/29 03:51:52;;;;;;;12.98;8.38;;;22.70;99.90;;;;;;4939576;29;20039;-80
2022/06/29 03:54:17;;;;;;;11.98;8.48;;;22.70;99.90;;;;;;4943696;29;20024;-80
2022/06/29 03:56:43;;;;;;;14.68;8.50;;;22.70;99.90;;;;;;4941891;29;20031;-80
2022/06/29 03:59:09;;;;;;;13.60;8.32;;;22.70;99.90;;;;;;4945593;29;20035;-79
2022/06/29 04:01:35;;;;;;;11.25;8.73;;;22.70;99.90;;;;;;4948578;29;20051;-78
2022/06/29 04:04:01;;;;;;;11.93;8.30;;;22.60;99.90;;;;;;4943820;29;20575;-80
2022/06/29 04:06:27;;;;;;;11.00;8.30;;;22.60;99.90;;;;;;4944382;29;20026;-79
2022/06/29 04:08:52;;;;;;;14.43;8.15;;;22.60;99.90;;;;;;4957025;29;20051;-79
2022/06/29 04:14:02;;;;;;;13.63;8.77;;;22.60;99.90;;;;;;4927314;29;20040;-83
2022/06/29 04:16:28;;;;;;;13.52;8.18;;;22.60;99.90;;;;;;4929392;29;20028;-80
2022/06/29 04:18:54;;;;;;;13.43;8.65;;;22.70;99.90;;;;;;4928780;29;20504;-79
2022/06/29 04:21:20;;;;;;;12.18;8.95;;;22.80;99.90;;;;;;4930337;29;20028;-79
2022/06/29 04:23:45;;;;;;;11.43;8.60;;;22.80;99.90;;;;;;4929895;29;20059;-80
2022/06/29 04:26:11;;;;;;;11.85;9.38;;;22.80;99.90;;;;;;4923813;29;20278;-80
2022/06/29 04:28:37;;;;;;;11.27;8.15;;;22.80;99.90;;;;;;4922240;29;20036;-79
2022/06/29 04:31:03;;;;;;;16.67;8.55;;;22.90;99.90;;;;;;4923422;29;20028;-81
2022/06/29 04:33:29;;;;;;;14.48;7.57;;;23.00;99.90;;;;;;4921732;29;20128;-82
2022/06/29 04:35:55;;;;;;;13.38;8.25;;;23.00;99.90;;;;;;4921362;29;20052;-80
2022/06/29 04:38:20;;;;;;;14.88;8.27;;;23.10;99.90;;;;;;4923210;29;20025;-80
2022/06/29 04:40:46;;;;;;;12.02;8.60;;;23.30;99.90;;;;;;4923916;29;20021;-81
2022/06/29 04:43:12;;;;;;;16.20;8.40;;;23.30;99.90;;;;;;4923530;29;20473;-81
2022/06/29 04:48:22;;;;;;;15.32;9.07;;;23.40;99.90;;;;;;4936676;29;20039;-79
2022/06/29 04:50:48;;;;;;;13.80;8.48;;;23.60;99.90;;;;;;4921799;29;20040;-80
2022/06/29 04:53:14;;;;;;;12.73;8.57;;;23.80;99.90;;;;;;4936834;29;20032;-80
2022/06/29 04:55:40;;;;;;;15.38;9.13;;;24.10;99.90;;;;;;4923155;29;20101;-80
2022/06/29 04:58:05;;;;;;;12.98;8.30;;;24.50;99.90;;;;;;4924934;29;20076;-79
2022/06/29 05:00:31;;;;;;;16.13;8.48;;;24.90;99.90;;;;;;4932555;29;20031;-78
2022/06/29 05:02:57;;;;;;;13.40;8.07;;;25.20;99.90;;;;;;4949612;29;20032;-79
2022/06/29 05:05:22;;;;;;;12.50;8.05;;;25.20;99.90;;;;;;4936010;29;20413;-79
2022/06/29 05:07:48;;;;;;;13.95;7.95;;;25.10;99.90;;;;;;4934314;29;20028;-79
2022/06/29 05:10:15;;;;;;;14.65;7.32;;;25.10;99.90;;;;;;4936048;29;20445;-79
2022/06/29 05:12:41;;;;;;;18.55;8.77;;;25.20;99.90;;;;;;4934144;29;20032;-80
2022/06/29 05:15:08;;;;;;;10.73;7.72;;;25.30;99.90;;;;;;4934154;29;20028;-79
2022/06/29 05:17:36;;;;;;;14.32;8.68;;;25.40;99.90;;;;;;4933954;29;20036;-81
2022/06/29 05:20:08;;;;;;;12.57;7.85;;;25.40;99.90;;;;;;4932345;29;20025;-81
2022/06/29 05:22:34;;;;;;;13.52;7.97;;;25.40;99.90;;;;;;4931990;29;20024;-80
2022/06/29 05:25:01;;;;;;;14.75;9.18;;;25.40;99.90;;;;;;4931485;29;20032;-81
2022/06/29 05:27:27;;;;;;;13.88;8.05;;;25.50;99.90;;;;;;4932957;29;20032;-78
2022/06/29 05:29:53;;;;;;;11.75;8.20;;;25.40;99.90;;;;;;4933012;29;20072;-80
2022/06/29 05:32:19;;;;;;;11.45;8.27;;;25.40;99.90;;;;;;4932351;29;20057;-80
2022/06/29 05:34:45;;;;;;;15.02;8.00;;;25.40;99.90;;;;;;4933099;29;20039;-79
2022/06/29 05:37:10;;;;;;;14.52;8.77;;;25.50;99.90;;;;;;4929423;29;20059;-80
2022/06/29 05:39:36;;;;;;;13.23;8.32;;;25.60;99.90;;;;;;4925127;29;20054;-81
2022/06/29 05:42:02;;;;;;;15.63;8.23;;;25.80;99.90;;;;;;4928379;29;20127;-80
2022/06/29 05:44:28;;;;;;;19.35;9.18;;;26.10;99.90;;;;;;4928342;29;20395;-81
2022/06/29 05:46:54;;;;;;;13.57;8.57;;;26.40;99.90;;;;;;4929972;29;20080;-79
2022/06/29 05:49:19;;;;;;;15.98;8.73;;;26.50;99.90;;;;;;4935227;29;20079;-81
2022/06/29 05:51:45;;;;;;;13.10;8.63;;;26.40;99.90;;;;;;4938070;29;20119;-82
2022/06/29 05:54:11;;;;;;;17.92;9.50;;;26.40;99.90;;;;;;4941475;29;20028;-82
2022/06/29 05:56:37;;;;;;;17.15;9.07;;;26.20;99.90;;;;;;4941432;29;20063;-81
2022/06/29 05:59:02;;;;;;;14.15;8.27;;;26.10;99.90;;;;;;4944675;29;20072;-80
2022/06/29 06:01:28;;;;;;;21.15;9.40;;;26.30;99.90;;;;;;4942457;29;20031;-81
2022/06/29 06:03:54;;;;;;;14.32;8.40;;;26.40;99.90;;;;;;4951369;29;20035;-81
2022/06/29 06:06:20;;;;;;;24.70;9.80;;;26.40;99.90;;;;;;4925991;29;20071;-81
2022/06/29 06:08:45;;;;;;;16.52;8.93;;;26.40;99.90;;;;;;4925172;29;20386;-82
2022/06/29 06:11:11;;;;;;;23.25;8.32;;;26.50;99.90;;;;;;4924222;29;20063;-80
2022/06/29 06:13:37;;;;;;;17.48;8.02;;;26.80;99.90;;;;;;4927730;29;20115;-80
2022/06/29 06:16:04;;;;;;;18.55;8.90;;;26.90;99.90;;;;;;4943691;29;20036;-80
2022/06/29 06:18:29;;;;;;;13.73;8.80;;;27.00;99.90;;;;;;4937587;29;20024;-78
2022/06/29 06:20:55;;;;;;;12.35;8.32;;;26.90;99.90;;;;;;4936474;29;20062;-81
2022/06/29 06:23:21;;;;;;;16.92;8.60;;;26.80;99.90;;;;;;4935844;29;20135;-82
2022/06/29 06:25:47;;;;;;;14.55;8.13;;;26.60;99.90;;;;;;4942683;29;20092;-82
2022/06/29 06:28:13;;;;;;;16.25;8.93;;;26.60;99.90;;;;;;4940832;29;20056;-84
2022/06/29 06:30:38;;;;;;;15.00;8.43;;;26.60;99.90;;;;;;4935900;29;20055;-81
2022/06/29 06:33:07;;;;;;;13.68;8.32;;;26.40;99.90;;;;;;4932378;29;20051;-82
2022/06/29 06:35:33;;;;;;;14.35;9.75;;;26.30;99.90;;;;;;4932620;29;20059;-83
2022/06/29 06:37:59;;;;;;;18.15;8.98;;;26.20;99.90;;;;;;4936438;29;20025;-82
2022/06/29 06:43:09;;;;;;;12.98;8.32;;;26.60;99.90;;;;;;4927570;29;20067;-82
2022/06/29 06:45:53;;;;;;;16.35;9.77;;;26.90;99.90;;;;;;4928519;29;20036;-83
2022/06/29 06:48:19;;;;;;;15.43;8.37;;;26.90;99.90;;;;;;4922386;29;20038;-83
2022/06/29 06:50:45;;;;;;;9.40;8.15;;;27.10;99.90;;;;;;4924394;29;20044;-82
2022/06/29 06:53:10;;;;;;;16.77;8.18;;;27.20;99.90;;;;;;4924939;29;20024;-84
2022/06/29 06:55:36;;;;;;;17.95;8.70;;;27.40;99.90;;;;;;4925603;29;20056;-83
2022/06/29 06:58:02;;;;;;;14.07;7.70;;;27.60;99.90;;;;;;4926027;29;20100;-83
2022/06/29 07:00:29;;;;;;;8.55;7.65;;;27.80;99.90;;;;;;4921653;29;20024;-84
2022/06/29 07:02:55;;;;;;;10.75;7.90;;;27.80;99.90;;;;;;4921296;29;20036;-84
2022/06/29 07:05:20;;;;;;;11.45;8.65;;;27.70;99.90;;;;;;4921104;29;20031;-83
2022/06/29 07:07:47;;;;;;;18.38;8.57;;;27.70;99.90;;;;;;4920236;29;20076;-83
2022/06/29 07:10:13;;;;;;;15.77;7.90;;;28.00;99.90;;;;;;4920537;29;20036;-84
2022/06/29 07:12:39;;;;;;;18.08;8.45;;;28.10;99.90;;;;;;4919837;29;20072;-82
2022/06/29 07:15:05;;;;;;;14.00;8.68;;;28.10;99.90;;;;;;4923446;29;20027;-85
2022/06/29 07:17:31;;;;;;;16.17;8.98;;;28.00;99.90;;;;;;4919106;29;20092;-83
2022/06/29 07:19:57;;;;;;;16.80;9.15;;;27.80;99.90;;;;;;4921201;29;20032;-83
2022/06/29 07:22:23;;;;;;;12.75;8.60;;;27.80;99.90;;;;;;4924692;29;20040;-89
2022/06/29 07:24:49;;;;;;;19.40;8.82;;;27.90;99.90;;;;;;4926618;29;20067;-85
2022/06/29 07:27:15;;;;;;;14.07;8.73;;;28.10;99.90;;;;;;4924858;29;20080;-86
2022/06/29 07:29:41;;;;;;;9.82;8.02;;;28.20;99.90;;;;;;4924663;29;20021;-86
2022/06/29 07:32:07;;;;;;;11.57;8.82;;;28.30;99.90;;;;;;4930209;29;20025;-87
2022/06/29 07:34:33;;;;;;;19.50;9.18;;;28.40;99.90;;;;;;4939082;29;20085;-85
2022/06/29 07:36:58;;;;;;;16.58;10.32;;;28.40;99.90;;;;;;4930388;29;20047;-86
2022/06/29 07:39:25;;;;;;;15.73;8.60;;;28.60;99.90;;;;;;4923705;29;20578;-87
2022/06/29 07:41:50;;;;;;;17.08;8.43;;;28.60;99.90;;;;;;4925593;29;20071;-86
2022/06/29 07:44:16;;;;;;;13.48;9.05;;;28.70;99.90;;;;;;4924847;29;20021;-86
2022/06/29 07:46:42;;;;;;;11.57;8.60;;;28.70;99.90;;;;;;4926996;29;20038;-85
2022/06/29 07:49:08;;;;;;;15.35;8.35;;;28.90;99.90;;;;;;4925158;29;20032;-86
2022/06/29 07:51:35;;;;;;;15.63;8.77;;;29.00;99.90;;;;;;4927987;29;20040;-86
2022/06/29 07:54:00;;;;;;;12.10;8.15;;;28.60;99.90;;;;;;4922793;29;20061;-86
2022/06/29 07:56:26;;;;;;;18.27;8.13;;;28.70;99.90;;;;;;4923815;29;20032;-87
2022/06/29 07:58:52;;;;;;;14.38;8.20;;;28.70;99.90;;;;;;4922425;29;20020;-87
2022/06/29 08:01:18;;;;;;;23.08;8.02;;;29.00;99.90;;;;;;4927150;29;20184;-86
2022/06/29 08:03:44;;;;;;;16.33;8.88;;;29.20;99.90;;;;;;4931638;29;20043;-86
2022/06/29 08:06:10;;;;;;;17.98;7.93;;;29.30;99.90;;;;;;4929608;29;20555;-84
2022/06/29 08:08:36;;;;;;;14.85;8.10;;;29.30;99.90;;;;;;4926703;29;20523;-85
2022/06/29 08:11:02;;;;;;;12.20;7.95;;;29.50;99.90;;;;;;4927802;29;20036;-85
2022/06/29 08:13:28;;;;;;;23.67;8.68;;;29.50;99.90;;;;;;4934091;29;20035;-86
2022/06/29 08:15:54;;;;;;;12.27;8.48;;;29.70;99.90;;;;;;4942111;29;20036;-86
2022/06/29 08:18:19;;;;;;;11.75;7.65;;;30.00;99.90;;;;;;4943066;29;20057;-87
2022/06/29 08:20:45;;;;;;;14.57;8.07;;;30.00;99.90;;;;;;4941972;29;20036;-86
2022/06/29 08:23:11;;;;;;;11.15;7.95;;;30.20;99.60;;;;;;4926016;29;20027;-85
2022/06/29 08:25:37;;;;;;;14.68;8.60;;;30.30;99.50;;;;;;4941446;29;20050;-86
2022/06/29 08:28:03;;;;;;;16.83;13.30;;;30.30;99.90;;;;;;4934709;29;20043;-86
2022/06/29 08:30:29;;;;;;;18.10;7.70;;;30.30;99.60;;;;;;4941705;29;20028;-86
2022/06/29 08:32:55;;;;;;;17.95;7.32;;;30.40;99.50;;;;;;4943278;29;20040;-86
2022/06/29 08:35:21;;;;;;;12.35;7.20;;;30.30;99.00;;;;;;4939492;29;20131;-86
2022/06/29 08:37:47;;;;;;;14.77;7.20;;;30.30;99.00;;;;;;4936064;29;20028;-85
2022/06/29 08:40:15;;;;;;;11.60;7.15;;;30.30;99.00;;;;;;4938914;29;20099;-86
2022/06/29 08:42:42;;;;;;;18.60;8.05;;;30.30;99.00;;;;;;4943365;29;20020;-85
2022/06/29 08:45:09;;;;;;;14.85;7.75;;;30.30;98.90;;;;;;4942767;29;20134;-85
2022/06/29 08:47:35;;;;;;;15.88;7.75;;;30.40;98.70;;;;;;4943076;29;20044;-86
2022/06/29 08:50:12;;;;;;;17.30;8.40;;;30.60;98.90;;;;;;4942657;29;20028;-87
2022/06/29 08:52:39;;;;;;;12.95;7.85;;;30.60;98.80;;;;;;4941999;29;20036;-87
2022/06/29 08:55:08;;;;;;;17.38;7.80;;;30.80;98.40;;;;;;4925994;29;20032;-85
2022/06/29 08:57:42;;;;;;;11.10;7.10;;;31.10;97.90;;;;;;4941240;29;20028;-85
2022/06/29 09:00:10;;;;;;;13.57;6.38;;;31.30;97.50;;;;;;4940222;29;20036;-86
2022/06/29 09:02:36;;;;;;;11.02;6.60;;;31.40;96.70;;;;;;4933295;29;20186;-87
2022/06/29 09:05:03;;;;;;;16.55;7.10;;;31.50;96.50;;;;;;4927733;29;20039;-86
2022/06/29 09:07:29;;;;;;;13.57;6.68;;;31.70;96.50;;;;;;4926323;29;20039;-86
2022/06/29 09:10:10;;;;;;;14.77;6.90;;;31.90;96.10;;;;;;4928480;29;20036;-85
2022/06/29 09:12:36;;;;;;;17.52;6.85;;;32.20;95.80;;;;;;4927157;29;20044;-84
2022/06/29 09:15:04;;;;;;;10.50;6.65;;;32.60;95.40;;;;;;4936163;29;20051;-84
2022/06/29 09:17:31;;;;;;;15.55;6.63;;;32.70;94.80;;;;;;4934855;29;20051;-84
2022/06/29 09:19:57;;;;;;;11.10;6.10;;;32.50;94.60;;;;;;4941359;29;20017;-85
2022/06/29 09:22:23;;;;;;;13.32;6.35;;;32.40;94.80;;;;;;4924668;29;20068;-85
2022/06/29 09:24:52;;;;;;;11.27;6.70;;;32.50;94.60;;;;;;4934718;29;20035;-85
2022/06/29 09:27:18;;;;;;;16.33;6.80;;;32.60;94.50;;;;;;4933774;29;20028;-84
2022/06/29 09:29:44;;;;;;;10.43;6.63;;;32.30;93.80;;;;;;4934390;29;20109;-85
2022/06/29 09:32:11;;;;;;;12.80;6.53;;;32.10;94.20;;;;;;4934340;29;20028;-86
2022/06/29 09:34:46;;;;;;;8.85;5.93;;;32.20;94.10;;;;;;4925382;29;20111;-86
2022/06/29 09:37:15;;;;;;;12.90;7.00;;;32.40;94.00;;;;;;4923808;29;20063;-87
2022/06/29 09:39:51;;;;;;;18.48;6.93;;;32.40;94.20;;;;;;4934846;29;20056;-84
2022/06/29 09:42:24;;;;;;;12.75;6.60;;;32.60;94.30;;;;;;4931076;29;20108;-86
2022/06/29 09:44:50;;;;;;;12.50;7.03;;;32.80;93.90;;;;;;4924043;29;20047;-88
2022/06/29 09:47:21;;;;;;;13.57;7.20;;;32.80;93.80;;;;;;4926932;29;20036;-86
2022/06/29 09:49:52;;;;;;;13.40;6.40;;;32.80;93.90;;;;;;4926643;29;20038;-86
2022/06/29 09:52:19;;;;;;;13.15;6.68;;;32.90;93.70;;;;;;4931596;29;20040;-85
2022/06/29 09:54:51;;;;;;;10.13;6.38;;;33.10;93.10;;;;;;4939390;29;20016;-85
2022/06/29 09:57:20;;;;;;;13.35;6.13;;;33.60;92.30;;;;;;4939916;29;20020;-87
2022/06/29 10:05:08;;;;;;;7.78;6.32;;;34.50;91.40;;;;;;4933906;29;20024;-86
2022/06/29 10:07:38;;;;;;;9.60;6.00;;;35.00;90.90;;;;;;4929255;29;20047;-85
2022/06/29 10:10:09;;;;;;;7.70;6.13;;;34.90;90.50;;;;;;4935691;29;20554;-86
2022/06/29 10:16:03;;;;;;;14.15;5.72;;;34.40;90.80;;;;;;4924470;29;20385;-85
2022/06/29 10:18:59;;;;;;;16.42;5.60;;;34.50;90.00;;;;;;4924317;29;20043;-85
2022/06/29 10:21:31;;;;;;;9.35;6.15;;;34.30;90.20;;;;;;4924975;29;20457;-85
2022/06/29 10:24:01;;;;;;;7.40;5.13;;;35.10;89.90;;;;;;4925040;29;20039;-87
2022/06/29 10:28:56;;;;;;;8.93;5.50;;;38.00;83.00;;;;;;4929709;29;20054;-86
2022/06/29 10:31:54;;;;;;;14.30;6.20;;;38.90;80.20;;;;;;4940296;29;20051;-88
2022/06/29 10:34:37;;;;;;;10.68;5.13;;;40.20;76.70;;;;;;4940108;29;20031;-87
2022/06/29 10:37:03;;;;;;;12.73;5.20;;;41.60;73.20;;;;;;4939757;29;20036;-85
2022/06/29 10:39:49;;;;;;;8.70;4.82;;;41.90;70.20;;;;;;4940271;29;20083;-85
2022/06/29 10:45:17;;;;;;;7.78;4.55;;;43.00;66.60;;;;;;4931320;29;20044;-86
2022/06/29 10:48:12;;;;;;;7.80;4.30;;;44.30;63.80;;;;;;4929405;29;20036;-84
2022/06/29 10:50:39;;;;;;;8.27;4.22;;;44.80;61.60;;;;;;4928465;29;20036;-86
2022/06/29 10:53:12;;;;;;;14.60;4.45;;;45.20;61.00;;;;;;4911095;29;20036;-85
2022/06/29 10:55:42;;;;;;;;;;;46.00;59.20;;;;;;4929274;29;20044;-87
2022/06/29 10:58:09;;;;;;;10.07;4.38;;;46.40;57.80;;;;;;4928820;29;19907;-86
2022/06/29 11:00:40;;;;;;;10.68;4.32;;;46.90;56.80;;;;;;4926862;29;20032;-87
2022/06/29 11:03:18;;;;;;;6.00;4.00;;;45.90;56.10;;;;;;4925180;29;20040;-86
2022/06/29 11:14:02;;;;;;;5.10;3.85;;;44.30;56.40;;;;;;4925829;29;20060;-86
2022/06/29 11:16:30;;;;;;;10.90;4.07;;;44.30;56.40;;;;;;4927170;29;20071;-87
2022/06/29 11:18:56;;;;;;;9.70;4.05;;;44.00;56.30;;;;;;4924615;29;20114;-86
2022/06/29 11:21:23;;;;;;;8.45;4.38;;;44.40;55.60;;;;;;4924709;29;20036;-85
2022/06/29 11:24:03;;;;;;;12.93;4.10;;;45.10;54.40;;;;;;4925835;29;20032;-84
2022/06/29 11:26:30;;;;;;;4.60;3.50;;;45.30;54.10;;;;;;4924057;29;20044;-86
2022/06/29 11:28:57;;;;;;;9.65;4.20;;;45.60;53.90;;;;;;4928236;29;20575;-87
2022/06/29 11:31:24;;;;;;;14.70;4.88;;;46.00;53.90;;;;;;4936857;29;20071;-86
2022/06/29 11:33:54;;;;;;;6.57;4.00;;;45.50;53.60;;;;;;4936022;29;20028;-87
2022/06/29 11:36:30;;;;;;;11.32;4.25;;;45.30;54.20;;;;;;4929908;29;20404;-84
2022/06/29 11:39:03;;;;;;;6.55;4.40;;;46.80;52.90;;;;;;4932238;29;20429;-85
2022/06/29 11:44:27;;;;;;;9.95;3.85;;;47.40;51.90;;;;;;4932936;29;20067;-86
2022/06/29 11:46:57;;;;;;;5.97;3.85;;;46.70;52.40;;;;;;4931709;29;20036;-86
2022/06/29 11:49:39;;;;;;;7.65;4.25;;;46.70;52.00;;;;;;4932674;29;20024;-84
2022/06/29 11:52:08;;;;;;;7.15;4.20;;;47.30;51.70;;;;;;4929099;29;20054;-85
2022/06/29 11:54:49;;;;;;;7.13;4.03;;;46.90;52.10;;;;;;4927959;29;20075;-84
2022/06/29 11:57:17;;;;;;;7.35;3.95;;;46.10;51.50;;;;;;4928044;29;20060;-85
2022/06/29 11:59:45;;;;;;;9.00;3.67;;;45.90;52.00;;;;;;4926891;29;20370;-86
2022/06/29 12:02:13;;;;;;;10.50;3.92;;;45.70;51.70;;;;;;4927822;29;20020;-84
2022/06/29 12:04:40;;;;;;;6.00;3.53;;;45.50;51.80;;;;;;4928652;29;20122;-86
2022/06/29 12:07:16;;;;;;;7.57;3.83;;;44.70;52.90;;;;;;4928619;29;20037;-85
2022/06/29 12:09:43;;;;;;;8.45;3.53;;;45.70;51.80;;;;;;4928620;29;20501;-84
2022/06/29 12:12:10;;;;;;;5.82;3.30;;;46.50;50.90;;;;;;4929288;29;20076;-86
2022/06/29 12:14:37;;;;;;;6.20;3.00;;;46.60;50.30;;;;;;4934757;29;20039;-87
2022/06/29 12:17:04;;;;;;;9.45;3.28;;;46.30;49.60;;;;;;4942881;29;20036;-86
2022/06/29 12:19:30;;;;;;;8.27;3.47;;;44.70;50.60;;;;;;4926366;29;20032;-86
2022/06/29 12:21:57;;;;;;;9.38;3.28;;;43.10;51.80;;;;;;4965965;23;20040;-83
2022/06/29 12:24:24;;;;;;;11.77;3.72;;;40.60;53.20;;;;;;4951119;29;20035;-83
2022/06/29 12:26:50;;;;;;;7.20;3.95;;;38.80;55.20;;;;;;4950885;29;20079;-84
2022/06/29 12:29:17;;;;;;;8.52;4.32;;;38.10;56.10;;;;;;4950979;29;20051;-84
2022/06/29 12:31:44;;;;;;;7.28;3.83;;;37.90;56.90;;;;;;4947987;29;20024;-85
2022/06/29 12:34:11;;;;;;;6.45;3.55;;;39.10;56.20;;;;;;4951640;29;20024;-85
2022/06/29 12:36:36;;;;;;;7.43;3.63;;;39.40;55.40;;;;;;4951114;29;20024;-85
2022/06/29 12:39:03;;;;;;;5.03;3.50;;;39.20;56.00;;;;;;4950932;29;20032;-84
2022/06/29 12:41:30;;;;;;;9.50;3.33;;;38.70;56.30;;;;;;4950465;28;20022;-85
2022/06/29 12:43:56;;;;;;;6.22;3.65;;;37.90;57.20;;;;;;4950425;29;20101;-86
2022/06/29 12:46:22;;;;;;;12.18;4.15;;;37.20;58.30;;;;;;4951905;29;20075;-83
2022/06/29 12:48:47;;;;;;;9.45;4.10;;;36.80;59.40;;;;;;4955287;28;20096;-83
2022/06/29 12:51:13;;;;;;;6.68;3.50;;;36.80;59.70;;;;;;4955667;28;20051;-86
2022/06/29 12:53:39;;;;;;;7.15;3.45;;;37.70;58.60;;;;;;4951633;29;20043;-84
2022/06/29 12:56:06;;;;;;;6.40;3.03;;;38.80;57.70;;;;;;4948319;29;20024;-85
2022/06/29 12:58:32;;;;;;;12.55;3.80;;;40.30;56.20;;;;;;4947707;29;20028;-84
2022/06/29 13:00:58;;;;;;;8.57;3.22;;;42.10;54.10;;;;;;4948092;29;20068;-85
2022/06/29 13:03:24;;;;;;;7.47;3.03;;;43.10;52.90;;;;;;4956760;28;20050;-83
2022/06/29 13:05:50;;;;;;;8.13;3.22;;;43.50;52.20;;;;;;4949067;29;20100;-85
2022/06/29 13:08:16;;;;;;;6.20;3.92;;;43.90;52.10;;;;;;4950655;29;20031;-82
2022/06/29 13:10:43;;;;;;;7.10;3.97;;;44.00;51.40;;;;;;4958509;28;20028;-84
2022/06/29 13:13:09;;;;;;;10.38;3.95;;;44.00;51.60;;;;;;4950297;29;20028;-84
2022/06/29 13:15:34;;;;;;;9.02;3.65;;;44.00;51.20;;;;;;4948596;29;20032;-86
2022/06/29 13:18:02;;;;;;;5.78;3.47;;;43.90;51.80;;;;;;4947890;29;20086;-85
2022/06/29 13:20:28;;;;;;;7.55;3.05;;;43.50;52.00;;;;;;4949621;29;20043;-84